Malden, MA

9:46 AM EDT on August 18, 2017 (GMT -0400)
Malden West | | Change Station

Elev 0 ft 42.43 °N, 71.07 °W | Updated 20 seconds ago

Overcast
Overcast
73.0 °F
Feels Like 77 °F
N
0.0
Wind Variable Wind from SSE
Gusts 0.0 mph

Today
High -- | Low -- °F
--% Chance of Precip.
Yesterday
High -- | Low -- °F
Precip. -- in
Pressure 29.95 in
Visibility 10.0 miles
Clouds Few 1300 ft
Overcast 6000 ft
Heat Index 77 °F
Dew Point 50 °F
Humidity 45%
Rainfall 0.00 in
Snow Depth Not available.
5:54 AM 7:40 PM
Waning Crescent, 13% visible
METAR KBOS 181254Z 16008KT 10SM -RA FEW013 OVC060 21/18 A2995 RMK AO2 RAB48 SLP141 P0000 T02110183
Pressure 29.95 in
Visibility 10.0 miles
Clouds Few 1300 ft
Overcast 6000 ft
Heat Index 77 °F
Dew Point 50 °F
Humidity 45%
Rainfall 0.00 in
Snow Depth Not available.
5:54 AM 7:40 PM
Waning Crescent, 13% visible
METAR KBOS 181254Z 16008KT 10SM -RA FEW013 OVC060 21/18 A2995 RMK AO2 RAB48 SLP141 P0000 T02110183

Get Severe Weather Alerts

Thanks for signing up!

Be on the lookout for a verification email in your inbox.

You'll start receiving the daily forecast at 6 AM.

×

10-Day Weather Forecast

Almanac

Astronomy

Aug. 18, 2017 Rise Set
Actual Time
Civil Twilight
Nautical Twilight
Astronomical Twilight
Moon
Length of Visible Light
Length of Day
Tomorrow will be .
, % of the Moon is Illuminated

Today's Extremes

State Highs State Lows

Community

WunderPhotos

Category 6

Welcome to Category 6. This is the collective home for Weather Underground's featured writeups by Dr. Jeff Masters (right), Bob Henson (left), Chris Burt, and other regular contributors.

Nearby

Air Quality

  Air Quality AQ Index Pollutant
Not available.

Snow Depth

Station Depth Elevation

Earthquake Activity

City Distance Mag. Time & Date
Minimum magnitude displayed is 2.5.

Coastal Water Temperatures

Place Temperature

Stations

Nearby Weather Stations

Station Location Temp. Windchill Dew Point Humidity Wind Precip. Elev Updated Type
                   

Watches & Warnings

There are currently no watches in effect.